Terminal Aerodrome Forecast
Issued by NWS

Home | Current Version | Previous Version | Text Only | Print | Product List | Glossary On
Versions: 1 2 3 4 5 6 7 8 9 10 11 12 13
000
FTAK31 PAJN 231700
TAFAPG
TAF
PAPG 231720Z 2318/2418 VRB04KT P6SM -SHRA FEW004 SCT020 BKN045
     FM232200 06005KT P6SM VCSH SCT025 BKN050
     FM240000 06005KT P6SM SCT050 BKN100
     FM240600 00000KT P6SM FEW005 SCT100
     FM241300 00000KT P6SM BCFG FEW005 SCT100
      TEMPO 2413/2417 3SM BR SCT005
      AMD LTD TO CLD VIS AND WIND 2406/2415=

USA.gov is the U.S. government's official web portal to all federal, state and local government web resources and services.